Time;durP1;ratioP1;P1;durP2;ratioP2;P2;SDS_P1;SDS_P2;PMS_P1;PMS_P2;Temp;Humidity;BMP_temperature;BMP_pressure;BME280_temperature;BME280_humidity;BME280_pressure;Samples;Min_cycle;Max_cycle;Signal;HPM_P1;HPM_P2
2023/04/20 00:00:56;;;;;;;23.40;21.90;;;9.90;99.90;;;;;;5149578;28;20441;-79
2023/04/20 00:03:27;;;;;;;25.88;24.17;;;10.00;99.90;;;;;;5166861;28;20084;-79
2023/04/20 00:06:01;;;;;;;23.65;22.10;;;10.20;99.90;;;;;;5166669;28;20030;-79
2023/04/20 00:08:32;;;;;;;38.25;34.75;;;10.10;99.90;;;;;;5166957;28;20028;-79
2023/04/20 00:11:03;;;;;;;25.83;23.83;;;10.20;99.90;;;;;;5166876;28;20026;-80
2023/04/20 00:13:33;;;;;;;24.98;23.20;;;10.20;99.90;;;;;;5166210;28;20022;-78
2023/04/20 00:16:05;;;;;;;25.73;24.02;;;10.10;99.90;;;;;;5166725;28;20504;-80
2023/04/20 00:18:35;;;;;;;23.95;22.30;;;9.90;99.90;;;;;;5149686;28;20393;-80
2023/04/20 00:21:06;;;;;;;26.85;25.13;;;9.80;99.90;;;;;;5166458;28;20041;-80
2023/04/20 00:23:37;;;;;;;25.42;23.83;;;9.80;99.90;;;;;;5167005;28;20034;-79
2023/04/20 00:26:08;;;;;;;26.45;24.33;;;9.80;99.90;;;;;;5149523;28;20214;-79
2023/04/20 00:28:39;;;;;;;24.80;23.20;;;9.80;99.90;;;;;;5166994;28;20026;-80
2023/04/20 00:31:12;;;;;;;26.00;24.25;;;9.40;99.90;;;;;;5166477;28;20030;-80
2023/04/20 00:33:47;;;;;;;25.60;23.73;;;9.60;99.90;;;;;;5166173;28;20026;-80
2023/04/20 00:36:21;;;;;;;27.70;25.90;;;9.50;99.90;;;;;;5165806;28;20044;-80
2023/04/20 00:39:04;;;;;;;28.92;26.60;;;9.80;99.90;;;;;;5166084;28;20474;-80
2023/04/20 00:41:43;;;;;;;25.80;23.92;;;9.90;99.90;;;;;;5165906;28;20557;-80
2023/04/20 00:44:14;;;;;;;27.75;25.80;;;10.00;99.90;;;;;;5165797;28;20026;-79
2023/04/20 00:46:52;;;;;;;27.02;25.27;;;10.10;99.90;;;;;;5165701;28;20037;-80
2023/04/20 00:49:29;;;;;;;26.58;24.77;;;10.10;99.90;;;;;;5165819;28;20027;-79
2023/04/20 00:52:03;;;;;;;28.80;26.65;;;9.90;99.90;;;;;;5165248;28;20133;-79
2023/04/20 00:54:35;;;;;;;23.65;22.23;;;10.10;99.90;;;;;;5166427;28;20054;-79
2023/04/20 00:57:06;;;;;;;25.63;23.70;;;10.00;99.90;;;;;;5166542;28;20023;-79
2023/04/20 00:59:37;;;;;;;24.92;23.35;;;10.00;99.90;;;;;;5149381;28;20069;-79
2023/04/20 01:02:08;;;;;;;27.25;25.45;;;10.00;99.90;;;;;;5166848;28;20035;-79
2023/04/20 01:04:40;;;;;;;24.38;22.80;;;9.90;99.90;;;;;;5166225;28;20528;-79
2023/04/20 01:07:10;;;;;;;26.65;24.85;;;9.80;99.90;;;;;;5148818;28;20033;-79
2023/04/20 01:09:41;;;;;;;28.48;26.48;;;9.90;99.90;;;;;;5166712;28;20030;-79
2023/04/20 01:12:12;;;;;;;27.10;25.30;;;9.80;99.90;;;;;;5166388;28;20040;-78
2023/04/20 01:14:43;;;;;;;28.33;26.20;;;9.60;99.90;;;;;;5166425;28;20446;-78
2023/04/20 01:17:14;;;;;;;27.20;25.40;;;9.70;99.90;;;;;;5166622;28;20022;-78
2023/04/20 01:19:45;;;;;;;27.50;25.48;;;9.70;99.90;;;;;;5165738;28;20041;-78
2023/04/20 01:22:18;;;;;;;28.30;26.05;;;9.90;99.90;;;;;;5165760;28;20045;-78
2023/04/20 01:24:48;;;;;;;26.75;24.85;;;9.80;99.90;;;;;;5148592;28;20026;-78
2023/04/20 01:27:19;;;;;;;25.30;23.50;;;9.90;99.90;;;;;;5165780;28;20045;-78
2023/04/20 01:29:50;;;;;;;23.15;21.48;;;9.90;99.90;;;;;;5166353;28;20022;-79
2023/04/20 01:32:21;;;;;;;24.40;22.67;;;10.10;99.90;;;;;;5165802;28;20027;-79
2023/04/20 01:34:52;;;;;;;24.98;23.17;;;10.10;99.90;;;;;;5165949;28;20022;-78
2023/04/20 01:37:23;;;;;;;26.88;25.02;;;9.90;99.90;;;;;;5148484;28;20030;-78
2023/04/20 01:39:54;;;;;;;24.85;23.15;;;9.90;99.90;;;;;;5148218;28;20072;-79
2023/04/20 01:42:25;;;;;;;24.17;22.45;;;9.90;99.90;;;;;;5148482;28;20038;-78
2023/04/20 01:44:56;;;;;;;26.27;24.48;;;9.90;99.90;;;;;;5165901;28;20053;-79
2023/04/20 01:47:28;;;;;;;26.55;24.65;;;9.90;99.90;;;;;;5165848;28;20153;-79
2023/04/20 01:49:59;;;;;;;28.45;26.55;;;10.00;99.90;;;;;;5165673;28;20403;-79
2023/04/20 01:52:30;;;;;;;27.80;25.55;;;9.90;99.90;;;;;;5148009;28;20181;-79
2023/04/20 01:55:00;;;;;;;31.13;28.73;;;9.90;99.90;;;;;;5165666;28;20104;-79
2023/04/20 01:57:31;;;;;;;28.17;26.17;;;10.00;99.90;;;;;;5165624;28;20034;-79
2023/04/20 02:00:03;;;;;;;31.65;29.30;;;10.20;99.90;;;;;;5165241;28;20042;-78
2023/04/20 02:02:34;;;;;;;30.92;28.70;;;10.00;99.90;;;;;;5165424;28;20030;-79
2023/04/20 02:05:05;;;;;;;29.65;27.40;;;10.10;99.90;;;;;;5165425;28;20045;-80
2023/04/20 02:07:36;;;;;;;28.73;26.52;;;10.20;99.90;;;;;;5147981;28;20038;-79
2023/04/20 02:10:07;;;;;;;29.70;27.60;;;10.20;99.90;;;;;;5147995;28;20056;-79
2023/04/20 02:12:38;;;;;;;27.55;25.65;;;10.20;99.90;;;;;;5165427;28;20031;-79
2023/04/20 02:15:10;;;;;;;30.40;28.20;;;10.20;99.90;;;;;;5165378;28;20053;-79
2023/04/20 02:17:41;;;;;;;27.85;25.85;;;10.20;99.90;;;;;;5147964;28;20026;-79
2023/04/20 02:20:12;;;;;;;28.90;26.80;;;10.30;99.90;;;;;;5165168;28;20034;-79
2023/04/20 02:22:43;;;;;;;28.52;26.42;;;10.30;99.90;;;;;;5147805;28;20390;-79
2023/04/20 02:25:14;;;;;;;28.75;26.55;;;10.20;99.90;;;;;;5165113;28;20034;-79
2023/04/20 02:27:45;;;;;;;29.33;27.15;;;10.20;99.90;;;;;;5147709;28;20037;-79
2023/04/20 02:30:15;;;;;;;28.08;25.77;;;10.20;99.90;;;;;;5165156;28;20022;-79
2023/04/20 02:32:46;;;;;;;30.58;28.17;;;10.30;99.90;;;;;;5164952;28;20038;-79
2023/04/20 02:35:18;;;;;;;30.85;28.45;;;10.40;99.90;;;;;;5165159;28;20026;-79
2023/04/20 02:37:50;;;;;;;29.80;27.35;;;10.40;99.90;;;;;;5166777;28;20038;-78
2023/04/20 02:40:21;;;;;;;27.48;25.27;;;10.50;99.90;;;;;;5168879;28;20030;-78
2023/04/20 02:42:51;;;;;;;30.00;27.80;;;10.40;99.90;;;;;;5169068;28;20022;-79
2023/04/20 02:45:22;;;;;;;31.13;28.75;;;10.30;99.90;;;;;;5168757;28;20394;-79
2023/04/20 02:47:53;;;;;;;32.78;30.02;;;10.30;99.90;;;;;;5168827;28;20089;-79
2023/04/20 02:50:25;;;;;;;48.35;44.80;;;10.40;99.90;;;;;;5151177;28;20034;-79
2023/04/20 02:52:56;;;;;;;35.08;32.22;;;10.40;99.90;;;;;;5151309;28;21069;-79
2023/04/20 02:55:27;;;;;;;34.28;31.38;;;10.30;99.90;;;;;;5168466;28;20023;-78
2023/04/20 02:57:58;;;;;;;34.33;31.63;;;10.40;99.90;;;;;;5151090;28;20033;-79
2023/04/20 03:00:30;;;;;;;33.50;30.80;;;10.40;99.90;;;;;;5150703;28;20038;-79
2023/04/20 03:03:02;;;;;;;35.60;32.42;;;10.40;99.90;;;;;;5151085;28;20018;-79
2023/04/20 03:05:33;;;;;;;36.15;33.08;;;10.50;99.90;;;;;;5168692;28;20084;-80
2023/04/20 03:08:05;;;;;;;37.15;33.95;;;10.50;99.90;;;;;;5168374;28;20027;-79
2023/04/20 03:10:36;;;;;;;33.20;30.58;;;10.50;99.90;;;;;;5168082;28;20026;-80
2023/04/20 03:13:08;;;;;;;35.88;32.88;;;10.50;99.90;;;;;;5168023;28;20097;-80
2023/04/20 03:15:38;;;;;;;37.25;34.10;;;10.50;99.90;;;;;;5168164;28;20019;-78
2023/04/20 03:18:09;;;;;;;36.65;33.55;;;10.60;99.90;;;;;;5168257;28;20076;-80
2023/04/20 03:20:40;;;;;;;37.28;34.08;;;10.70;99.90;;;;;;5167924;28;20050;-80
2023/04/20 03:23:11;;;;;;;39.33;35.65;;;10.50;99.90;;;;;;5150462;28;20080;-79
2023/04/20 03:25:42;;;;;;;39.28;35.88;;;10.60;99.90;;;;;;5168159;28;20030;-80
2023/04/20 03:28:14;;;;;;;39.50;35.95;;;10.60;99.90;;;;;;5168005;28;20439;-79
2023/04/20 03:30:44;;;;;;;39.03;35.47;;;10.60;99.90;;;;;;5167657;28;20030;-80
2023/04/20 03:33:15;;;;;;;39.85;36.25;;;10.60;99.90;;;;;;5150405;28;20022;-79
2023/04/20 03:35:46;;;;;;;41.42;37.65;;;10.60;99.90;;;;;;5167714;28;20105;-79
2023/04/20 03:38:17;;;;;;;41.15;37.42;;;10.50;99.90;;;;;;5167732;28;20500;-79
2023/04/20 03:40:48;;;;;;;40.55;36.72;;;10.60;99.90;;;;;;5167264;28;20057;-79
2023/04/20 03:43:18;;;;;;;37.83;34.50;;;10.70;99.90;;;;;;5167423;28;20030;-79
2023/04/20 03:45:49;;;;;;;40.92;37.05;;;10.70;99.90;;;;;;5167542;28;20031;-79
2023/04/20 03:48:20;;;;;;;40.17;36.40;;;10.60;99.90;;;;;;5149661;28;20555;-79
2023/04/20 03:50:51;;;;;;;40.22;36.67;;;10.70;99.90;;;;;;5166532;28;20030;-79
2023/04/20 03:53:22;;;;;;;43.63;39.47;;;10.70;99.90;;;;;;5167255;28;20038;-79
2023/04/20 03:55:53;;;;;;;40.38;36.65;;;10.80;99.90;;;;;;5167260;28;20437;-80
2023/04/20 03:58:24;;;;;;;39.92;36.22;;;10.70;99.90;;;;;;5167656;28;20085;-79
2023/04/20 04:01:07;;;;;;;44.40;40.13;;;10.80;99.90;;;;;;5167522;28;20173;-80
2023/04/20 04:03:38;;;;;;;44.65;40.50;;;10.80;99.90;;;;;;5167558;28;20470;-79
2023/04/20 04:06:10;;;;;;;43.33;38.63;;;10.80;99.90;;;;;;5167693;28;20018;-79
2023/04/20 04:08:41;;;;;;;41.47;37.35;;;10.80;99.90;;;;;;5167089;28;20532;-79
2023/04/20 04:11:12;;;;;;;43.13;39.22;;;10.90;99.90;;;;;;5166853;28;20022;-79
2023/04/20 04:13:43;;;;;;;45.45;41.25;;;10.90;99.90;;;;;;5167413;28;20033;-80
2023/04/20 04:16:14;;;;;;;42.17;38.42;;;11.00;99.90;;;;;;5167283;28;20022;-79
2023/04/20 04:18:46;;;;;;;42.45;38.50;;;11.00;99.90;;;;;;5166966;28;20022;-78
2023/04/20 04:21:16;;;;;;;39.95;36.45;;;10.90;99.90;;;;;;5149547;28;20125;-80
2023/04/20 04:23:48;;;;;;;42.97;39.03;;;11.00;99.90;;;;;;5167028;28;20117;-80
2023/04/20 04:26:23;;;;;;;40.78;36.85;;;11.10;99.90;;;;;;5167028;28;20030;-80
2023/04/20 04:28:54;;;;;;;41.42;37.58;;;11.10;99.90;;;;;;5149491;28;20019;-78
2023/04/20 04:31:26;;;;;;;43.35;39.35;;;11.10;99.90;;;;;;5166956;28;20022;-79
2023/04/20 04:33:57;;;;;;;43.25;39.45;;;11.00;99.90;;;;;;5166754;28;20026;-80
2023/04/20 04:36:28;;;;;;;43.10;39.13;;;11.00;99.90;;;;;;5166612;28;20029;-75
2023/04/20 04:38:59;;;;;;;45.75;41.45;;;11.00;99.90;;;;;;5166612;28;20038;-79
2023/04/20 04:41:30;;;;;;;45.42;40.83;;;11.00;99.90;;;;;;5149098;28;20041;-80
2023/04/20 04:44:02;;;;;;;48.70;44.17;;;11.10;99.90;;;;;;5149401;28;20335;-79
2023/04/20 04:46:33;;;;;;;44.70;40.47;;;11.20;99.90;;;;;;5149348;28;20049;-78
2023/04/20 04:49:04;;;;;;;45.45;41.13;;;11.20;99.90;;;;;;5166315;28;20034;-82
2023/04/20 04:51:35;;;;;;;49.30;44.67;;;11.20;99.90;;;;;;5165970;28;20467;-79
2023/04/20 04:54:06;;;;;;;46.83;42.42;;;11.20;99.90;;;;;;5147521;28;20054;-79
2023/04/20 04:56:37;;;;;;;48.55;43.85;;;11.30;99.90;;;;;;5151227;28;20023;-78
2023/04/20 04:59:07;;;;;;;48.03;43.10;;;11.20;99.90;;;;;;5161465;28;20033;-80
2023/04/20 05:01:38;;;;;;;48.95;44.45;;;11.30;99.90;;;;;;5152689;28;20474;-80
2023/04/20 05:04:09;;;;;;;46.88;42.55;;;11.30;99.90;;;;;;5137324;28;20019;-80
2023/04/20 05:06:40;;;;;;;47.88;43.17;;;11.30;99.90;;;;;;5154762;28;20034;-79
2023/04/20 05:09:11;;;;;;;45.47;41.40;;;11.30;99.90;;;;;;5142645;28;20022;-80
2023/04/20 05:11:42;;;;;;;43.03;39.00;;;11.30;99.90;;;;;;5151733;28;20101;-79
2023/04/20 05:14:13;;;;;;;46.00;41.47;;;11.30;99.90;;;;;;5162709;28;20101;-77
2023/04/20 05:16:44;;;;;;;45.00;40.78;;;11.40;99.90;;;;;;5164921;28;20026;-76
2023/04/20 05:19:15;;;;;;;46.38;42.00;;;11.40;99.90;;;;;;5137778;28;20117;-80
2023/04/20 05:21:46;;;;;;;43.10;39.10;;;11.50;99.90;;;;;;5157143;28;20556;-80
2023/04/20 05:24:18;;;;;;;44.35;40.20;;;11.50;99.90;;;;;;5162848;28;20039;-78
2023/04/20 05:26:49;;;;;;;46.85;42.53;;;11.50;99.90;;;;;;5156033;28;20550;-80
2023/04/20 05:29:20;;;;;;;48.15;43.85;;;11.40;99.90;;;;;;5155512;28;20023;-80
2023/04/20 05:31:51;;;;;;;43.97;40.08;;;11.50;99.90;;;;;;5155413;28;20085;-80
2023/04/20 05:34:21;;;;;;;46.10;41.95;;;11.60;99.90;;;;;;5141004;28;20022;-79
2023/04/20 05:36:53;;;;;;;46.47;42.08;;;11.70;99.90;;;;;;5152501;28;20426;-80
2023/04/20 05:39:25;;;;;;;46.95;42.65;;;11.70;99.90;;;;;;5152733;28;20026;-80
2023/04/20 05:41:56;;;;;;;47.40;43.10;;;11.70;99.90;;;;;;5137417;28;20034;-79
2023/04/20 05:44:27;;;;;;;43.08;39.55;;;11.70;99.90;;;;;;5148223;28;20479;-80
2023/04/20 05:46:58;;;;;;;45.65;41.65;;;11.80;99.90;;;;;;5152123;28;20033;-79
2023/04/20 05:49:29;;;;;;;48.28;44.22;;;11.80;99.90;;;;;;5151800;28;20423;-80
2023/04/20 05:52:03;;;;;;;49.55;45.45;;;11.90;99.90;;;;;;5162291;28;20105;-80
2023/04/20 05:54:33;;;;;;;48.10;43.95;;;11.90;99.90;;;;;;5165749;28;20031;-78
2023/04/20 05:57:04;;;;;;;47.70;43.80;;;12.00;99.90;;;;;;5165719;28;20031;-80
2023/04/20 05:59:35;;;;;;;50.47;46.22;;;12.00;99.90;;;;;;5165905;28;20038;-80
2023/04/20 06:02:06;;;;;;;50.80;46.55;;;12.10;99.90;;;;;;5166129;28;20026;-80
2023/04/20 06:04:37;;;;;;;50.33;46.22;;;12.20;99.90;;;;;;5162544;28;20450;-79
2023/04/20 06:07:08;;;;;;;51.35;47.13;;;12.30;99.90;;;;;;5156633;28;20076;-78
2023/04/20 06:09:39;;;;;;;51.50;47.30;;;12.30;99.90;;;;;;5139762;28;20085;-79
2023/04/20 06:12:10;;;;;;;52.05;47.72;;;12.50;99.90;;;;;;5135781;28;20018;-83
2023/04/20 06:14:41;;;;;;;51.63;47.38;;;12.50;99.90;;;;;;5160277;28;20026;-85
2023/04/20 06:17:12;;;;;;;53.13;48.72;;;12.70;99.90;;;;;;5170261;28;20022;-88
2023/04/20 06:19:42;;;;;;;53.28;48.88;;;12.80;99.90;;;;;;5164692;28;20035;-90
2023/04/20 06:22:14;;;;;;;51.90;47.42;;;13.00;99.90;;;;;;5132852;28;20027;-85
2023/04/20 06:24:45;;;;;;;48.70;44.80;;;13.10;99.90;;;;;;5149539;28;20053;-87
2023/04/20 06:27:16;;;;;;;49.13;44.88;;;13.20;99.90;;;;;;5170008;28;20101;-86
2023/04/20 06:29:47;;;;;;;46.85;42.78;;;13.50;99.90;;;;;;5170162;28;20077;-86
2023/04/20 06:32:18;;;;;;;46.22;42.17;;;13.40;99.90;;;;;;5170111;28;20030;-86
2023/04/20 06:34:49;;;;;;;46.13;42.33;;;13.50;99.90;;;;;;5152441;28;20126;-85
2023/04/20 06:37:21;;;;;;;44.58;40.80;;;13.70;99.90;;;;;;5169723;28;20053;-84
2023/04/20 06:39:53;;;;;;;38.85;35.40;;;13.60;99.90;;;;;;5152177;28;20030;-86
2023/04/20 06:42:25;;;;;;;36.88;33.60;;;13.80;99.90;;;;;;5169574;28;20037;-86
2023/04/20 06:44:55;;;;;;;40.75;37.40;;;13.80;99.90;;;;;;5169632;28;20054;-86
2023/04/20 06:47:30;;;;;;;38.20;34.90;;;14.00;99.90;;;;;;5140965;28;20132;-86
2023/04/20 06:50:03;;;;;;;35.20;32.13;;;14.10;99.90;;;;;;5149301;28;20023;-86
2023/04/20 06:52:36;;;;;;;34.58;31.73;;;14.00;99.90;;;;;;5149579;28;20058;-86
2023/04/20 06:55:08;;;;;;;36.83;33.78;;;14.00;99.90;;;;;;5149661;28;20351;-86
2023/04/20 06:57:39;;;;;;;36.13;33.13;;;14.00;99.90;;;;;;5132185;28;20057;-86
2023/04/20 07:00:11;;;;;;;39.08;36.05;;;14.10;99.90;;;;;;5149011;28;20030;-86
2023/04/20 07:02:46;;;;;;;37.42;34.15;;;14.10;99.90;;;;;;5131879;28;20038;-85
2023/04/20 07:05:18;;;;;;;35.75;32.95;;;14.10;99.90;;;;;;5149194;28;20247;-86
2023/04/20 07:07:48;;;;;;;35.17;32.78;;;14.10;99.90;;;;;;5149173;28;20038;-86
2023/04/20 07:10:20;;;;;;;31.95;29.35;;;13.90;99.90;;;;;;5148829;28;20502;-84
2023/04/20 07:12:51;;;;;;;32.05;29.45;;;14.10;99.90;;;;;;5149001;28;20031;-86
2023/04/20 07:15:22;;;;;;;29.02;26.60;;;14.40;99.90;;;;;;5148617;28;20037;-86
2023/04/20 07:17:52;;;;;;;28.10;25.90;;;14.30;99.90;;;;;;5149275;28;20045;-86
2023/04/20 07:20:26;;;;;;;29.30;27.05;;;14.20;99.90;;;;;;5131455;28;20427;-86
2023/04/20 07:22:57;;;;;;;31.33;28.52;;;14.20;99.90;;;;;;5148561;28;20487;-86
2023/04/20 07:25:30;;;;;;;29.83;27.55;;;14.10;99.90;;;;;;5131444;28;20022;-84
2023/04/20 07:28:01;;;;;;;29.50;27.15;;;14.20;99.90;;;;;;5148605;28;20019;-85
2023/04/20 07:30:31;;;;;;;29.42;26.88;;;14.30;99.90;;;;;;5148944;28;20023;-85
2023/04/20 07:33:02;;;;;;;29.27;27.08;;;14.40;99.90;;;;;;5148826;28;20105;-86
2023/04/20 07:35:33;;;;;;;30.13;27.83;;;14.40;99.90;;;;;;5148873;28;20058;-85
2023/04/20 07:38:04;;;;;;;28.15;25.98;;;14.40;99.90;;;;;;5146766;28;20034;-86
2023/04/20 07:40:35;;;;;;;30.90;28.58;;;14.50;99.90;;;;;;5148736;28;20495;-86
2023/04/20 07:43:06;;;;;;;31.88;29.50;;;14.70;99.90;;;;;;5148310;28;20031;-82
2023/04/20 07:45:40;;;;;;;28.63;26.58;;;14.70;99.90;;;;;;5148527;28;20049;-84
2023/04/20 07:48:11;;;;;;;28.10;26.10;;;14.80;99.90;;;;;;5131070;28;20023;-86
2023/04/20 07:50:42;;;;;;;28.98;26.77;;;14.90;99.90;;;;;;5147922;28;20486;-86
2023/04/20 07:53:13;;;;;;;28.75;26.65;;;14.90;99.90;;;;;;5148248;28;20046;-88
2023/04/20 07:55:44;;;;;;;27.02;25.02;;;14.90;99.90;;;;;;5147921;28;20034;-88
2023/04/20 07:58:16;;;;;;;25.50;23.60;;;15.00;99.90;;;;;;5147754;28;20027;-80
2023/04/20 08:00:47;;;;;;;27.92;26.05;;;15.00;99.90;;;;;;5129535;28;20034;-81
2023/04/20 08:03:18;;;;;;;27.98;25.80;;;15.00;99.90;;;;;;5146739;28;20050;-81
2023/04/20 08:05:48;;;;;;;26.98;25.02;;;15.00;99.90;;;;;;5129391;28;20027;-77
2023/04/20 08:08:19;;;;;;;26.85;24.90;;;15.10;99.90;;;;;;5146547;28;20434;-78
2023/04/20 08:10:50;;;;;;;26.02;24.05;;;15.10;99.90;;;;;;5146279;28;20030;-81
2023/04/20 08:13:21;;;;;;;26.38;24.40;;;15.10;99.90;;;;;;5146531;28;20407;-72
2023/04/20 08:15:52;;;;;;;27.20;25.50;;;15.10;99.90;;;;;;5146385;28;20117;-72
2023/04/20 08:18:23;;;;;;;24.17;22.48;;;15.20;99.90;;;;;;5146466;28;20478;-73
2023/04/20 08:20:54;;;;;;;23.95;22.35;;;15.30;99.90;;;;;;5145952;28;20039;-73
2023/04/20 08:23:26;;;;;;;24.38;22.67;;;15.40;99.90;;;;;;5146272;28;20038;-73
2023/04/20 08:25:57;;;;;;;24.83;23.05;;;15.50;99.90;;;;;;5146274;28;20193;-73
2023/04/20 08:28:28;;;;;;;25.70;23.65;;;15.70;99.90;;;;;;5146224;28;20031;-81
2023/04/20 08:30:59;;;;;;;25.27;23.33;;;15.80;99.90;;;;;;5145902;28;20033;-81
2023/04/20 08:33:30;;;;;;;25.08;23.20;;;15.60;99.90;;;;;;5146201;28;20173;-76
2023/04/20 08:36:01;;;;;;;26.15;24.35;;;15.90;99.90;;;;;;5145491;28;20033;-82
2023/04/20 08:38:32;;;;;;;23.92;22.42;;;16.50;99.90;;;;;;5145989;28;20027;-81
2023/04/20 08:41:03;;;;;;;24.08;22.35;;;16.30;99.90;;;;;;5128511;28;20039;-76
2023/04/20 08:43:35;;;;;;;22.48;20.98;;;16.50;99.90;;;;;;5146150;28;20047;-82
2023/04/20 08:46:06;;;;;;;25.70;24.10;;;16.70;99.90;;;;;;5133246;28;20030;-81
2023/04/20 08:48:44;;;;;;;24.52;22.75;;;16.90;99.90;;;;;;5136404;28;20114;-81
2023/04/20 08:51:16;;;;;;;21.48;19.75;;;17.10;99.90;;;;;;5136192;28;20125;-80
2023/04/20 08:53:47;;;;;;;20.77;19.23;;;17.00;99.90;;;;;;5153900;28;20031;-80
2023/04/20 08:56:18;;;;;;;20.55;19.05;;;17.10;99.90;;;;;;5154919;28;20019;-81
2023/04/20 08:58:49;;;;;;;21.80;20.20;;;17.00;99.90;;;;;;5138284;28;20490;-80
2023/04/20 09:01:27;;;;;;;20.33;19.02;;;17.00;99.90;;;;;;5150060;28;20035;-81
2023/04/20 09:03:59;;;;;;;20.50;19.02;;;17.30;99.90;;;;;;5145582;28;20019;-80
2023/04/20 09:06:30;;;;;;;19.15;17.95;;;17.20;99.90;;;;;;5128239;28;20034;-79
2023/04/20 09:09:08;;;;;;;20.05;18.75;;;17.00;99.90;;;;;;5145567;28;20395;-80
2023/04/20 09:11:39;;;;;;;19.45;18.13;;;17.10;99.90;;;;;;5128202;28;20529;-82
2023/04/20 09:14:11;;;;;;;22.58;20.65;;;17.20;99.90;;;;;;5128199;28;20074;-81
2023/04/20 09:16:52;;;;;;;20.40;19.10;;;17.60;99.90;;;;;;5145525;28;20026;-81
2023/04/20 09:19:24;;;;;;;22.08;20.27;;;17.30;99.90;;;;;;5145490;28;20391;-80
2023/04/20 09:21:56;;;;;;;22.27;20.23;;;17.40;99.90;;;;;;5145240;28;20118;-81
2023/04/20 09:24:32;;;;;;;21.92;20.42;;;17.30;99.90;;;;;;5145639;28;20038;-77
2023/04/20 09:27:25;;;;;;;24.08;22.48;;;17.30;99.90;;;;;;5145279;28;20034;-76
2023/04/20 09:30:02;;;;;;;32.53;25.48;;;17.90;99.90;;;;;;5145506;28;20033;-86
2023/04/20 09:32:34;;;;;;;25.23;23.27;;;17.70;99.90;;;;;;5145464;28;20030;-82
2023/04/20 09:35:07;;;;;;;24.38;22.73;;;18.30;99.90;;;;;;5128119;28;20053;-81
2023/04/20 09:37:47;;;;;;;24.45;22.55;;;17.80;99.90;;;;;;5127995;28;20027;-80
2023/04/20 09:40:20;;;;;;;25.70;24.10;;;17.70;99.90;;;;;;5145394;28;20035;-79
2023/04/20 09:42:53;;;;;;;23.60;21.90;;;17.70;99.90;;;;;;5128176;28;20344;-79
2023/04/20 09:45:25;;;;;;;25.55;23.90;;;17.60;99.90;;;;;;5145385;28;20065;-79
2023/04/20 09:47:56;;;;;;;25.98;24.17;;;17.30;99.90;;;;;;5147089;28;20404;-79
2023/04/20 09:50:28;;;;;;;25.70;24.02;;;17.40;99.90;;;;;;5149284;28;20378;-79
2023/04/20 09:52:59;;;;;;;26.13;23.98;;;17.40;99.90;;;;;;5132295;28;20055;-78
2023/04/20 09:55:33;;;;;;;26.80;24.77;;;17.90;99.90;;;;;;5149365;28;20363;-79
2023/04/20 09:58:04;;;;;;;25.45;23.42;;;17.70;99.90;;;;;;5149186;28;20023;-77
2023/04/20 10:00:35;;;;;;;25.75;24.08;;;17.80;99.90;;;;;;5165823;28;20128;-77
2023/04/20 10:03:09;;;;;;;25.48;23.67;;;17.50;99.90;;;;;;5169319;28;20030;-76
2023/04/20 10:05:40;;;;;;;24.35;22.65;;;17.50;99.90;;;;;;5169282;28;20030;-81
2023/04/20 10:08:11;;;;;;;24.05;22.20;;;17.20;99.90;;;;;;5151621;28;20482;-76
2023/04/20 10:10:46;;;;;;;25.05;23.42;;;17.10;99.90;;;;;;5169105;28;20032;-75
2023/04/20 10:13:22;;;;;;;24.42;22.50;;;17.40;99.90;;;;;;5151585;28;20062;-74
2023/04/20 10:15:52;;;;;;;24.30;22.70;;;16.90;99.90;;;;;;5168932;28;20402;-76
2023/04/20 10:18:23;;;;;;;27.27;25.58;;;16.40;99.90;;;;;;5151507;28;20031;-73
2023/04/20 10:21:12;;;;;;;25.63;23.85;;;16.30;99.90;;;;;;5151182;28;20093;-74
2023/04/20 10:23:48;;;;;;;26.92;25.02;;;16.00;99.90;;;;;;5168961;28;20065;-75
2023/04/20 10:26:19;;;;;;;29.08;26.98;;;16.00;99.90;;;;;;5168867;28;20053;-78
2023/04/20 10:28:50;;;;;;;25.25;23.42;;;15.70;99.90;;;;;;5151357;28;20106;-80
2023/04/20 10:31:21;;;;;;;23.90;22.27;;;15.40;99.90;;;;;;5168757;28;20462;-79
2023/04/20 10:33:55;;;;;;;24.50;22.50;;;15.30;99.90;;;;;;5151038;28;20038;-79
2023/04/20 10:36:36;;;;;;;26.10;24.35;;;15.10;99.90;;;;;;5151104;28;20597;-79
2023/04/20 10:39:15;;;;;;;24.88;23.23;;;15.20;99.90;;;;;;5151250;28;20651;-80
2023/04/20 10:42:05;;;;;;;23.58;21.75;;;15.10;99.90;;;;;;5168420;28;20042;-79
2023/04/20 10:44:47;;;;;;;26.23;24.27;;;14.90;99.90;;;;;;5168675;28;20026;-80
2023/04/20 10:47:28;;;;;;;25.40;23.67;;;14.90;99.90;;;;;;5168223;28;20386;-80
2023/04/20 10:50:08;;;;;;;23.85;22.15;;;15.00;99.90;;;;;;5168262;28;20026;-79
2023/04/20 10:52:41;;;;;;;24.85;23.10;;;15.10;99.90;;;;;;5168282;28;20138;-82
2023/04/20 10:55:23;;;;;;;24.02;22.27;;;15.30;99.90;;;;;;5168295;28;20022;-78
2023/04/20 10:57:54;;;;;;;22.27;20.88;;;15.10;99.90;;;;;;5150200;28;20026;-78
2023/04/20 11:00:27;;;;;;;21.58;19.80;;;15.20;99.90;;;;;;5150706;28;20034;-77
2023/04/20 11:02:57;;;;;;;22.45;20.75;;;15.20;99.90;;;;;;5151411;28;20050;-71
2023/04/20 11:05:28;;;;;;;24.30;22.60;;;15.20;99.90;;;;;;5168331;28;20081;-73
2023/04/20 11:08:02;;;;;;;23.33;21.38;;;15.30;99.90;;;;;;5167578;28;20416;-73
2023/04/20 11:10:39;;;;;;;21.05;19.67;;;15.10;99.90;;;;;;5167835;28;20030;-73
2023/04/20 11:13:24;;;;;;;20.02;18.60;;;15.20;99.90;;;;;;5167822;28;20022;-74
2023/04/20 11:15:55;;;;;;;20.42;19.10;;;14.90;99.90;;;;;;5167722;28;20022;-74
2023/04/20 11:18:26;;;;;;;17.50;16.40;;;15.10;99.90;;;;;;5167225;28;20113;-73
2023/04/20 11:20:57;;;;;;;19.17;18.08;;;14.90;99.90;;;;;;5166838;28;20047;-72
2023/04/20 11:23:37;;;;;;;20.35;19.10;;;14.80;99.90;;;;;;5149569;28;20093;-74
2023/04/20 11:26:07;;;;;;;19.77;18.50;;;14.70;99.90;;;;;;5167198;28;20110;-75
2023/04/20 11:28:49;;;;;;;20.35;18.98;;;14.70;99.90;;;;;;5166929;28;20106;-73
2023/04/20 11:31:20;;;;;;;19.27;18.15;;;14.70;99.90;;;;;;5166993;28;20054;-75
2023/04/20 11:33:50;;;;;;;18.20;17.10;;;14.90;99.90;;;;;;5166885;28;20054;-74
2023/04/20 11:36:22;;;;;;;17.90;16.80;;;15.20;99.90;;;;;;5149860;28;20035;-74
2023/04/20 11:38:54;;;;;;;17.38;16.25;;;15.60;99.90;;;;;;5150874;28;20034;-76
2023/04/20 11:41:25;;;;;;;17.08;16.08;;;15.80;99.90;;;;;;5150514;28;20092;-74
2023/04/20 11:43:56;;;;;;;16.60;15.60;;;15.70;99.90;;;;;;5150939;28;20418;-76
2023/04/20 11:46:27;;;;;;;18.60;17.25;;;16.10;99.90;;;;;;5168005;28;20545;-76
2023/04/20 11:48:59;;;;;;;19.40;18.10;;;16.40;99.90;;;;;;5168072;28;20109;-75
2023/04/20 11:51:30;;;;;;;19.35;18.15;;;16.50;99.90;;;;;;5150432;28;20546;-74
2023/04/20 11:54:01;;;;;;;20.67;19.48;;;16.40;99.90;;;;;;5167715;28;20026;-76
2023/04/20 11:56:32;;;;;;;23.30;21.60;;;16.70;99.90;;;;;;5167761;28;20030;-75
2023/04/20 11:59:03;;;;;;;24.48;22.73;;;16.90;99.90;;;;;;5150528;28;20157;-76
2023/04/20 12:01:35;;;;;;;22.33;20.95;;;16.90;99.90;;;;;;5150424;28;20050;-75
2023/04/20 12:04:06;;;;;;;21.20;19.80;;;17.00;99.90;;;;;;5168024;28;20026;-75
2023/04/20 12:06:37;;;;;;;21.42;19.63;;;17.00;99.90;;;;;;5167701;28;20413;-75
2023/04/20 12:09:08;;;;;;;20.70;18.77;;;16.80;99.90;;;;;;5167726;28;20018;-74
2023/04/20 12:11:39;;;;;;;20.90;19.55;;;16.70;99.90;;;;;;5166784;28;20343;-75
2023/04/20 12:14:10;;;;;;;19.98;18.52;;;16.50;99.90;;;;;;5150047;28;20029;-74
2023/04/20 12:16:41;;;;;;;19.83;18.63;;;16.30;99.90;;;;;;5167678;28;20026;-75
2023/04/20 12:19:11;;;;;;;21.50;20.20;;;15.80;99.90;;;;;;5167318;28;20030;-76
2023/04/20 12:21:43;;;;;;;21.58;20.13;;;15.80;99.90;;;;;;5167054;28;20042;-75
2023/04/20 12:24:14;;;;;;;20.42;18.90;;;15.80;99.90;;;;;;5167707;28;20027;-76
2023/04/20 12:26:45;;;;;;;18.45;17.05;;;15.70;99.90;;;;;;5167508;28;20026;-76
2023/04/20 12:29:16;;;;;;;18.50;17.17;;;15.60;99.90;;;;;;5167477;28;20093;-76
2023/04/20 12:31:47;;;;;;;18.35;16.92;;;15.70;99.90;;;;;;5150328;28;20029;-76
2023/04/20 12:34:18;;;;;;;18.23;17.02;;;15.50;99.90;;;;;;5167489;28;20037;-76
2023/04/20 12:36:49;;;;;;;19.25;17.90;;;15.40;99.90;;;;;;5166981;28;20057;-76
2023/04/20 12:39:20;;;;;;;20.20;18.70;;;15.40;99.90;;;;;;5167238;28;20027;-76
2023/04/20 12:41:51;;;;;;;20.42;19.00;;;15.60;99.90;;;;;;5167221;28;20374;-76
2023/04/20 12:44:22;;;;;;;18.70;17.33;;;15.70;99.90;;;;;;5149751;28;20073;-76
2023/04/20 12:46:53;;;;;;;18.08;16.77;;;15.50;99.90;;;;;;5167554;28;20022;-76
2023/04/20 12:49:24;;;;;;;18.38;17.10;;;15.90;99.90;;;;;;5167144;28;20054;-76
2023/04/20 12:51:55;;;;;;;19.15;17.65;;;16.30;99.90;;;;;;5166886;28;20093;-76